Bushnell, South Dakota
Current Conditions -  °F | °C
As of 12:13 PM on Thursday 30 Oct 2014 (Local Time) from KCNB Reporting Station
Overcast Overcast  
Wind Chill: 39°   Ceiling: 4500
Heat Index: 45°   Visibility: 10mi
Dew Point: 41°   Wind: 12mph
Humidity: 86%   Direction: 340°NNW
Pressure: 30.15"   Gusts: NA
Location:  44.4253°N, 96.5963°W
Report Text: KCNB 301713Z AUTO 34010KT 10SM SCT010 OVC045 07/05 A3015 RMK AO2 T00720050
Loading
Personal Weather Stations






























Interactive Weather Map
Tropical Storm Tracking
New forecast layout! Learn more

10-Day Weather Forecast

Advertisements
Track Severe Weather on mobile